Time;durP1;ratioP1;P1;durP2;ratioP2;P2;SDS_P1;SDS_P2;PMS_P1;PMS_P2;Temp;Humidity;BMP_temperature;BMP_pressure;BME280_temperature;BME280_humidity;BME280_pressure;Samples;Min_cycle;Max_cycle;Signal;HPM_P1;HPM_P2
2021/08/05 00:02:16;;;;;;;9.38;5.43;;;14.50;99.00;;;;;;6219788;22;20015;-84
2021/08/05 00:04:43;;;;;;;6.43;5.35;;;14.50;99.10;;;;;;6194648;22;20274;-84
2021/08/05 00:07:12;;;;;;;7.35;5.70;;;14.50;99.20;;;;;;6220025;22;20550;-84
2021/08/05 00:09:39;;;;;;;9.93;6.22;;;14.40;99.20;;;;;;6218705;22;20019;-83
2021/08/05 00:12:07;;;;;;;7.35;5.32;;;14.40;99.30;;;;;;6220174;22;20365;-84
2021/08/05 00:14:35;;;;;;;7.65;5.55;;;14.40;99.30;;;;;;6245516;22;20012;-83
2021/08/05 00:17:00;;;;;;;12.27;5.93;;;14.40;99.30;;;;;;6219800;22;20390;-83
2021/08/05 00:19:26;;;;;;;6.75;5.30;;;14.40;99.30;;;;;;6219076;22;20011;-84
2021/08/05 00:21:52;;;;;;;8.13;5.68;;;14.30;99.40;;;;;;6244474;22;20095;-83
2021/08/05 00:24:18;;;;;;;10.55;5.43;;;14.40;99.50;;;;;;6244814;22;20617;-84
2021/08/05 00:26:44;;;;;;;5.82;4.95;;;14.40;99.40;;;;;;6219895;22;20012;-84
2021/08/05 00:29:09;;;;;;;7.60;5.35;;;14.40;99.50;;;;;;6218757;22;20042;-83
2021/08/05 00:31:35;;;;;;;8.88;5.20;;;14.40;99.40;;;;;;6219579;22;20436;-83
2021/08/05 00:34:01;;;;;;;7.25;5.20;;;14.30;99.40;;;;;;6244340;22;20012;-84
2021/08/05 00:36:27;;;;;;;12.50;5.55;;;14.40;99.40;;;;;;6219239;22;20046;-83
2021/08/05 00:38:52;;;;;;;6.55;5.80;;;14.40;99.40;;;;;;6219257;22;20007;-84
2021/08/05 00:41:19;;;;;;;6.53;5.50;;;14.40;99.50;;;;;;6219009;22;20083;-83
2021/08/05 00:43:45;;;;;;;9.40;5.85;;;14.30;99.50;;;;;;6219159;22;20037;-84
2021/08/05 00:46:10;;;;;;;8.55;5.70;;;14.40;99.50;;;;;;6219752;22;20008;-84
2021/08/05 00:48:36;;;;;;;7.43;5.60;;;14.40;99.50;;;;;;6195193;22;20028;-84
2021/08/05 00:51:02;;;;;;;10.25;5.82;;;14.40;99.50;;;;;;6245268;22;20364;-84
2021/08/05 00:53:28;;;;;;;7.75;5.65;;;14.30;99.60;;;;;;6220532;22;20014;-84
2021/08/05 00:55:55;;;;;;;8.23;5.50;;;14.30;99.60;;;;;;6194512;22;20012;-84
2021/08/05 00:58:21;;;;;;;7.57;5.35;;;14.30;99.70;;;;;;6219972;22;20543;-84
2021/08/05 01:00:55;;;;;;;7.80;5.22;;;14.30;99.70;;;;;;6272405;22;20023;-84
2021/08/05 01:03:26;;;;;;;8.82;6.20;;;14.20;99.90;;;;;;6278636;22;20019;-84
2021/08/05 01:06:17;;;;;;;7.47;5.88;;;14.20;99.90;;;;;;6245151;22;20448;-84
2021/08/05 01:08:49;;;;;;;6.53;5.72;;;14.20;99.90;;;;;;6219272;22;20023;-84
2021/08/05 01:11:25;;;;;;;11.63;6.82;;;14.10;99.90;;;;;;6254391;22;20039;-84
2021/08/05 01:13:55;;;;;;;7.13;5.90;;;14.10;99.90;;;;;;6245163;22;20022;-84
2021/08/05 01:16:25;;;;;;;12.68;6.80;;;14.10;99.90;;;;;;6219442;22;20011;-83
2021/08/05 01:18:56;;;;;;;11.30;7.32;;;14.00;99.90;;;;;;6246394;22;20012;-84
2021/08/05 01:21:46;;;;;;;7.68;6.30;;;14.00;99.90;;;;;;6256880;22;20026;-84
2021/08/05 01:24:17;;;;;;;10.82;6.93;;;14.00;99.90;;;;;;6247079;22;20333;-84
2021/08/05 01:26:46;;;;;;;6.93;6.13;;;13.90;99.90;;;;;;6256949;22;20011;-84
2021/08/05 01:29:12;;;;;;;11.73;6.93;;;13.90;99.90;;;;;;6246827;22;20519;-84
2021/08/05 01:31:38;;;;;;;16.80;6.60;;;13.90;99.90;;;;;;6273583;22;20283;-83
2021/08/05 01:34:05;;;;;;;9.80;6.85;;;13.90;99.90;;;;;;6246718;22;20016;-84
2021/08/05 01:36:31;;;;;;;8.70;6.63;;;13.80;99.90;;;;;;6220802;22;20012;-84
2021/08/05 01:38:59;;;;;;;9.13;6.93;;;13.80;99.90;;;;;;6246058;22;20019;-85
2021/08/05 01:41:28;;;;;;;9.18;6.95;;;13.80;99.90;;;;;;6246233;22;20022;-84
2021/08/05 01:43:54;;;;;;;10.85;7.28;;;13.80;99.90;;;;;;6221732;22;20251;-84
2021/08/05 01:46:22;;;;;;;7.45;6.63;;;13.80;99.90;;;;;;6246808;22;20019;-84
2021/08/05 01:48:50;;;;;;;8.20;7.38;;;13.80;99.90;;;;;;6273010;22;20011;-84
2021/08/05 01:51:20;;;;;;;12.07;7.38;;;13.70;99.90;;;;;;6220876;22;20065;-84
2021/08/05 01:53:49;;;;;;;11.05;8.15;;;13.70;99.90;;;;;;6247532;22;20468;-84
2021/08/05 01:56:25;;;;;;;11.80;7.22;;;13.70;99.90;;;;;;6246371;22;20019;-84
2021/08/05 01:58:55;;;;;;;8.82;7.03;;;13.70;99.90;;;;;;6256135;22;20445;-84
2021/08/05 02:01:21;;;;;;;10.32;7.65;;;13.60;99.90;;;;;;6272748;22;20449;-84
2021/08/05 02:03:58;;;;;;;9.60;7.88;;;13.60;99.90;;;;;;6221215;22;20023;-84
2021/08/05 02:06:25;;;;;;;11.75;7.55;;;13.60;99.90;;;;;;6245853;22;20020;-84
2021/08/05 02:09:05;;;;;;;12.50;7.90;;;13.60;99.90;;;;;;6221244;22;20007;-83
2021/08/05 02:11:35;;;;;;;12.18;8.23;;;13.60;99.90;;;;;;6245939;22;20012;-83
2021/08/05 02:14:05;;;;;;;12.18;8.80;;;13.50;99.90;;;;;;6245818;22;20481;-84
2021/08/05 02:16:34;;;;;;;10.80;8.20;;;13.50;99.90;;;;;;6221261;22;20007;-83
2021/08/05 02:19:01;;;;;;;10.43;8.07;;;13.40;99.90;;;;;;6221004;22;20161;-83
2021/08/05 02:21:27;;;;;;;14.35;8.93;;;13.50;99.90;;;;;;6220793;22;20094;-84
2021/08/05 02:23:57;;;;;;;11.93;8.88;;;13.40;99.90;;;;;;6220576;22;20007;-84
2021/08/05 02:26:24;;;;;;;15.20;9.10;;;13.40;99.90;;;;;;6245646;22;20325;-84
2021/08/05 02:28:51;;;;;;;14.55;7.78;;;13.40;99.90;;;;;;6220551;22;20291;-84
2021/08/05 02:31:17;;;;;;;11.95;8.77;;;13.40;99.90;;;;;;6220545;22;20035;-83
2021/08/05 02:33:44;;;;;;;13.00;8.52;;;13.40;99.90;;;;;;6220597;22;20018;-84
2021/08/05 02:36:10;;;;;;;14.93;9.65;;;13.40;99.90;;;;;;6245602;22;20161;-83
2021/08/05 02:38:36;;;;;;;12.20;9.07;;;13.40;99.90;;;;;;6245824;22;20437;-84
2021/08/05 02:41:05;;;;;;;11.95;9.05;;;13.40;99.90;;;;;;6245462;22;20453;-84
2021/08/05 02:43:33;;;;;;;9.73;8.55;;;13.40;99.90;;;;;;6246036;22;20348;-83
2021/08/05 02:45:59;;;;;;;11.52;8.70;;;13.40;99.90;;;;;;6272607;22;20012;-84
2021/08/05 02:48:26;;;;;;;9.98;7.85;;;13.40;99.90;;;;;;6245554;22;20086;-84
2021/08/05 02:50:56;;;;;;;12.02;9.10;;;13.30;99.90;;;;;;6245224;22;20079;-84
2021/08/05 02:53:23;;;;;;;16.52;9.15;;;13.30;99.90;;;;;;6243485;22;20023;-84
2021/08/05 02:55:50;;;;;;;10.15;8.02;;;13.30;99.90;;;;;;6220791;22;20068;-84
2021/08/05 02:58:16;;;;;;;12.98;8.98;;;13.30;99.90;;;;;;6219940;22;20018;-84
2021/08/05 03:00:43;;;;;;;12.70;8.95;;;13.30;99.90;;;;;;6245335;22;20459;-84
2021/08/05 03:03:10;;;;;;;17.15;9.98;;;13.30;99.90;;;;;;6219723;22;20016;-84
2021/08/05 03:05:36;;;;;;;15.25;10.48;;;13.20;99.90;;;;;;6220382;22;20046;-84
2021/08/05 03:08:02;;;;;;;14.05;9.98;;;13.20;99.90;;;;;;6220331;22;20012;-83
2021/08/05 03:10:28;;;;;;;16.08;10.85;;;13.10;99.90;;;;;;6220519;22;20336;-84
2021/08/05 03:12:54;;;;;;;12.75;9.85;;;13.10;99.90;;;;;;6220515;22;20479;-84
2021/08/05 03:15:19;;;;;;;14.23;8.98;;;13.20;99.90;;;;;;6195465;22;20069;-83
2021/08/05 03:17:45;;;;;;;13.70;10.80;;;13.10;99.90;;;;;;6219843;22;20012;-83
2021/08/05 03:20:15;;;;;;;13.98;10.50;;;13.10;99.90;;;;;;6220048;22;20122;-84
2021/08/05 03:22:45;;;;;;;13.35;10.70;;;13.10;99.90;;;;;;6272222;22;20008;-84
2021/08/05 03:25:11;;;;;;;13.75;10.82;;;13.10;99.90;;;;;;6273251;22;20016;-83
2021/08/05 03:27:39;;;;;;;17.40;11.07;;;13.10;99.90;;;;;;6249239;22;20420;-83
2021/08/05 03:30:06;;;;;;;15.43;10.07;;;13.00;99.90;;;;;;6223549;22;20019;-83
2021/08/05 03:32:32;;;;;;;16.15;11.23;;;13.00;99.90;;;;;;6246667;22;20011;-84
2021/08/05 03:34:58;;;;;;;13.20;11.52;;;13.00;99.90;;;;;;6220705;22;20135;-84
2021/08/05 03:37:24;;;;;;;18.27;10.98;;;13.00;99.90;;;;;;6194644;22;20016;-84
2021/08/05 03:39:50;;;;;;;15.43;11.65;;;13.00;99.90;;;;;;6220046;22;20022;-84
2021/08/05 03:42:15;;;;;;;16.15;12.02;;;13.00;99.90;;;;;;6271980;22;20036;-84
2021/08/05 03:44:41;;;;;;;15.30;10.52;;;13.00;99.90;;;;;;6220330;22;20039;-84
2021/08/05 03:47:07;;;;;;;14.20;10.68;;;13.00;99.90;;;;;;6219858;22;20034;-85
2021/08/05 03:49:33;;;;;;;16.35;12.05;;;13.00;99.90;;;;;;6245193;22;20054;-84
2021/08/05 03:51:59;;;;;;;15.07;11.02;;;13.00;99.90;;;;;;6220163;22;20023;-84
2021/08/05 03:54:25;;;;;;;18.85;12.60;;;12.90;99.90;;;;;;6219806;22;20011;-84
2021/08/05 03:56:50;;;;;;;17.27;12.50;;;13.00;99.90;;;;;;6220733;22;20012;-85
2021/08/05 03:59:16;;;;;;;16.10;12.00;;;12.90;99.90;;;;;;6219974;22;20392;-84
2021/08/05 04:01:42;;;;;;;16.33;12.80;;;12.90;99.90;;;;;;6195252;22;20015;-83
2021/08/05 04:04:09;;;;;;;19.35;13.73;;;12.90;99.90;;;;;;6220696;22;20083;-84
2021/08/05 04:06:35;;;;;;;15.43;12.70;;;12.90;99.90;;;;;;6221077;22;20042;-84
2021/08/05 04:09:01;;;;;;;18.75;13.70;;;12.90;99.90;;;;;;6245768;22;20007;-83
2021/08/05 04:11:27;;;;;;;17.15;13.18;;;12.90;99.90;;;;;;6220784;22;20047;-84
2021/08/05 04:13:56;;;;;;;18.20;13.80;;;12.80;99.90;;;;;;6246461;22;20014;-84
2021/08/05 04:16:21;;;;;;;20.17;14.02;;;12.80;99.90;;;;;;6220401;22;20019;-84
2021/08/05 04:18:47;;;;;;;20.88;14.20;;;12.80;99.90;;;;;;6219524;22;20018;-84
2021/08/05 04:21:13;;;;;;;17.65;13.13;;;12.80;99.90;;;;;;6220355;22;20045;-84
2021/08/05 04:23:39;;;;;;;17.05;13.65;;;12.80;99.90;;;;;;6219311;22;20021;-83
2021/08/05 04:26:05;;;;;;;17.63;14.52;;;12.80;99.90;;;;;;6219352;22;20045;-84
2021/08/05 04:28:31;;;;;;;21.90;15.02;;;12.90;99.90;;;;;;6219134;22;20445;-84
2021/08/05 04:30:57;;;;;;;20.27;14.93;;;12.90;99.90;;;;;;6219030;22;20045;-84
2021/08/05 04:33:23;;;;;;;19.15;15.88;;;12.90;99.90;;;;;;6244614;22;20437;-84
2021/08/05 04:35:49;;;;;;;25.23;15.93;;;12.90;99.90;;;;;;6219423;22;20012;-84
2021/08/05 04:38:14;;;;;;;22.92;14.98;;;12.90;99.90;;;;;;6244817;22;20007;-84
2021/08/05 04:40:42;;;;;;;20.85;14.88;;;12.90;99.90;;;;;;6219508;22;20383;-84
2021/08/05 04:43:07;;;;;;;19.75;13.90;;;12.90;99.90;;;;;;6244674;22;20015;-83
2021/08/05 04:45:34;;;;;;;19.70;14.70;;;13.00;99.90;;;;;;6219862;22;20095;-83
2021/08/05 04:48:07;;;;;;;18.80;13.93;;;13.00;99.90;;;;;;6245329;22;20374;-84
2021/08/05 04:50:36;;;;;;;18.65;14.98;;;13.00;99.90;;;;;;6193884;22;20016;-84
2021/08/05 04:53:04;;;;;;;17.55;13.52;;;13.00;99.90;;;;;;6247797;22;20014;-84
2021/08/05 04:55:34;;;;;;;20.92;15.50;;;13.00;99.90;;;;;;6234378;22;20039;-83
2021/08/05 04:58:05;;;;;;;20.48;14.52;;;13.10;99.90;;;;;;6248873;22;20011;-84
2021/08/05 05:00:37;;;;;;;19.88;16.23;;;13.10;99.90;;;;;;6248093;22;20122;-83
2021/08/05 05:03:03;;;;;;;22.33;15.88;;;13.20;99.90;;;;;;6247482;22;20015;-83
2021/08/05 05:05:29;;;;;;;19.63;15.73;;;13.30;99.90;;;;;;6222836;22;20015;-83
2021/08/05 05:07:56;;;;;;;20.48;16.15;;;13.40;99.90;;;;;;6274877;22;20007;-83
2021/08/05 05:10:24;;;;;;;20.17;14.98;;;13.40;99.90;;;;;;6222285;22;20460;-83
2021/08/05 05:12:50;;;;;;;19.38;15.32;;;13.50;99.90;;;;;;6247830;22;20022;-83
2021/08/05 05:15:18;;;;;;;21.67;15.68;;;13.60;99.90;;;;;;6197218;22;20007;-83
2021/08/05 05:17:44;;;;;;;21.55;16.60;;;13.60;99.90;;;;;;6275452;22;20012;-83
2021/08/05 05:20:11;;;;;;;22.70;16.80;;;13.70;99.90;;;;;;6247992;22;20081;-83
2021/08/05 05:22:39;;;;;;;21.48;16.42;;;13.70;99.90;;;;;;6247804;22;20046;-84
2021/08/05 05:25:08;;;;;;;26.55;18.20;;;13.80;99.90;;;;;;6222460;22;20011;-84
2021/08/05 05:27:42;;;;;;;27.15;19.33;;;13.80;99.90;;;;;;6275182;22;20011;-84
2021/08/05 05:30:09;;;;;;;25.05;18.65;;;13.90;99.90;;;;;;6221954;22;20012;-85
2021/08/05 05:32:36;;;;;;;22.25;18.95;;;14.00;99.90;;;;;;6222302;22;20016;-84
2021/08/05 05:35:03;;;;;;;21.13;17.50;;;14.00;99.90;;;;;;6222724;22;20692;-85
2021/08/05 05:37:30;;;;;;;24.27;18.67;;;14.00;99.90;;;;;;6247765;22;20008;-84
2021/08/05 05:39:56;;;;;;;21.27;17.67;;;14.10;99.90;;;;;;6247502;22;20498;-84
2021/08/05 05:42:23;;;;;;;26.10;20.08;;;14.10;99.90;;;;;;6274288;22;20008;-85
2021/08/05 05:44:50;;;;;;;22.70;19.13;;;14.20;99.90;;;;;;6247893;22;20012;-85
2021/08/05 05:47:17;;;;;;;21.85;17.88;;;14.20;99.90;;;;;;6222655;22;20467;-84
2021/08/05 05:49:46;;;;;;;24.08;18.65;;;14.30;99.90;;;;;;6247386;22;20008;-84
2021/08/05 05:52:13;;;;;;;22.70;18.83;;;14.30;99.90;;;;;;6222850;22;20023;-84
2021/08/05 05:54:40;;;;;;;22.10;17.75;;;14.40;99.90;;;;;;6222900;22;20464;-84
2021/08/05 05:57:06;;;;;;;24.40;16.95;;;14.50;99.90;;;;;;6274091;22;20086;-84
2021/08/05 05:59:32;;;;;;;22.00;16.85;;;14.50;99.90;;;;;;6247432;22;20038;-83
2021/08/05 06:01:58;;;;;;;19.98;15.18;;;14.60;99.90;;;;;;6222420;22;20043;-84
2021/08/05 06:04:26;;;;;;;21.88;16.27;;;14.60;99.90;;;;;;6220735;22;20008;-83
2021/08/05 06:06:52;;;;;;;20.63;17.50;;;14.70;99.90;;;;;;6246018;22;20083;-83
2021/08/05 06:09:18;;;;;;;17.85;15.40;;;14.70;99.90;;;;;;6220580;22;20491;-83
2021/08/05 06:11:44;;;;;;;22.13;16.73;;;14.80;99.90;;;;;;6220229;22;20510;-83
2021/08/05 06:14:10;;;;;;;21.70;16.17;;;14.80;99.90;;;;;;6220178;22;20317;-84
2021/08/05 06:16:35;;;;;;;22.38;16.40;;;14.90;99.90;;;;;;6219989;22;20415;-84
2021/08/05 06:19:02;;;;;;;24.67;15.63;;;14.90;99.90;;;;;;6219331;22;20045;-83
2021/08/05 06:21:28;;;;;;;17.80;14.60;;;15.00;99.90;;;;;;6244022;22;20080;-83
2021/08/05 06:23:54;;;;;;;25.33;17.05;;;15.00;99.90;;;;;;6218134;22;20031;-84
2021/08/05 06:26:22;;;;;;;19.90;15.45;;;15.10;99.90;;;;;;6243201;22;20065;-84
2021/08/05 06:28:48;;;;;;;24.75;16.63;;;15.10;99.90;;;;;;6242778;22;20018;-83
2021/08/05 06:31:15;;;;;;;21.08;15.68;;;15.20;99.90;;;;;;6217583;22;20083;-83
2021/08/05 06:33:41;;;;;;;17.30;13.90;;;15.20;99.90;;;;;;6243526;22;20084;-84
2021/08/05 06:36:07;;;;;;;18.40;14.55;;;15.30;99.90;;;;;;6271491;22;20015;-84
2021/08/05 06:38:33;;;;;;;16.52;14.70;;;15.30;99.90;;;;;;6219847;22;20016;-83
2021/08/05 06:40:59;;;;;;;18.92;14.90;;;15.30;99.90;;;;;;6245007;22;20045;-83
2021/08/05 06:43:25;;;;;;;18.70;14.02;;;15.40;99.90;;;;;;6219692;22;20348;-83
2021/08/05 06:45:51;;;;;;;18.45;15.05;;;15.40;99.90;;;;;;6220316;22;20623;-83
2021/08/05 06:48:16;;;;;;;18.55;15.07;;;15.40;99.90;;;;;;6244878;22;20018;-83
2021/08/05 06:50:43;;;;;;;21.38;15.98;;;15.50;99.90;;;;;;6219614;22;20449;-84
2021/08/05 06:53:08;;;;;;;20.75;16.20;;;15.50;99.90;;;;;;6219934;22;20008;-84
2021/08/05 06:55:34;;;;;;;21.58;15.93;;;15.50;99.90;;;;;;6245420;22;20018;-84
2021/08/05 06:58:00;;;;;;;18.00;14.55;;;15.50;99.90;;;;;;6244838;22;20029;-84
2021/08/05 07:00:26;;;;;;;22.13;16.27;;;15.60;99.90;;;;;;6245561;22;20011;-84
2021/08/05 07:02:51;;;;;;;19.58;15.60;;;15.70;99.90;;;;;;6219377;22;20076;-85
2021/08/05 07:05:18;;;;;;;20.00;14.65;;;15.80;99.90;;;;;;6220120;22;20436;-84
2021/08/05 07:07:44;;;;;;;16.40;14.27;;;15.90;99.90;;;;;;6219857;22;20012;-84
2021/08/05 07:10:10;;;;;;;19.20;14.60;;;16.10;99.90;;;;;;6219546;22;20082;-83
2021/08/05 07:12:36;;;;;;;16.00;13.65;;;16.20;99.90;;;;;;6219759;22;20023;-84
2021/08/05 07:15:02;;;;;;;15.85;13.50;;;16.30;99.90;;;;;;6244281;22;20007;-84
2021/08/05 07:17:28;;;;;;;14.25;12.73;;;16.50;99.90;;;;;;6245903;22;20451;-85
2021/08/05 07:19:53;;;;;;;17.13;13.80;;;16.60;99.90;;;;;;6219893;22;20016;-84
2021/08/05 07:22:19;;;;;;;13.93;12.23;;;16.70;99.90;;;;;;6194342;22;20326;-84
2021/08/05 07:24:45;;;;;;;14.43;12.50;;;16.80;99.90;;;;;;6220045;22;20012;-83
2021/08/05 07:27:11;;;;;;;18.88;14.00;;;16.80;99.90;;;;;;6219811;22;20388;-84
2021/08/05 07:29:37;;;;;;;15.00;11.88;;;17.00;99.90;;;;;;6219499;22;20479;-84
2021/08/05 07:32:04;;;;;;;12.63;11.00;;;17.10;99.90;;;;;;6219360;22;20012;-84
2021/08/05 07:34:35;;;;;;;13.52;10.85;;;17.20;99.90;;;;;;6194459;22;20008;-84
2021/08/05 07:37:02;;;;;;;11.32;9.57;;;17.30;99.90;;;;;;6254703;22;20375;-84
2021/08/05 07:39:28;;;;;;;9.90;8.90;;;17.40;99.90;;;;;;6244452;22;20456;-82
2021/08/05 07:41:54;;;;;;;15.10;10.20;;;17.50;99.90;;;;;;6244789;22;20507;-83
2021/08/05 07:44:20;;;;;;;15.13;10.85;;;17.60;99.90;;;;;;6219610;22;20008;-83
2021/08/05 07:46:47;;;;;;;11.68;9.50;;;17.60;99.90;;;;;;6244276;22;20098;-83
2021/08/05 07:49:13;;;;;;;12.55;8.98;;;17.60;99.90;;;;;;6219663;22;20065;-84
2021/08/05 07:51:39;;;;;;;10.40;9.00;;;17.70;99.90;;;;;;6244580;22;20092;-85
2021/08/05 07:54:05;;;;;;;9.95;8.95;;;17.70;99.90;;;;;;6219557;22;20060;-84
2021/08/05 07:56:31;;;;;;;10.63;8.75;;;17.80;99.90;;;;;;6194233;22;20008;-83
2021/08/05 07:58:57;;;;;;;11.45;9.05;;;17.90;99.90;;;;;;6218868;22;20080;-84
2021/08/05 08:01:23;;;;;;;10.00;7.53;;;18.00;99.90;;;;;;6193912;22;20038;-83
2021/08/05 08:03:49;;;;;;;8.20;7.35;;;18.10;99.90;;;;;;6244855;22;20033;-83
2021/08/05 08:06:15;;;;;;;9.35;8.35;;;18.20;99.70;;;;;;6244918;22;20054;-83
2021/08/05 08:08:41;;;;;;;9.27;8.20;;;18.20;99.60;;;;;;6219110;22;20022;-84
2021/08/05 08:11:07;;;;;;;10.00;8.35;;;18.30;99.50;;;;;;6219366;22;20039;-83
2021/08/05 08:13:33;;;;;;;8.40;7.50;;;18.40;99.30;;;;;;6244240;22;20015;-84
2021/08/05 08:15:59;;;;;;;10.70;8.57;;;18.40;99.20;;;;;;6219154;22;20012;-84
2021/08/05 08:18:25;;;;;;;7.18;6.47;;;18.50;99.30;;;;;;6219087;22;20012;-83
2021/08/05 08:20:54;;;;;;;9.10;8.05;;;18.50;99.10;;;;;;6244238;22;20022;-83
2021/08/05 08:23:21;;;;;;;8.77;7.85;;;18.50;99.00;;;;;;6270862;22;20008;-83
2021/08/05 08:25:47;;;;;;;8.18;7.05;;;18.60;99.00;;;;;;6219766;22;20191;-83
2021/08/05 08:28:13;;;;;;;10.32;7.90;;;18.70;98.70;;;;;;6219071;22;20685;-84
2021/08/05 08:30:38;;;;;;;9.57;7.35;;;18.70;98.40;;;;;;6243976;22;20043;-83
2021/08/05 08:33:04;;;;;;;7.03;5.75;;;18.80;98.50;;;;;;6218581;22;20008;-84
2021/08/05 08:35:31;;;;;;;7.32;6.57;;;18.80;98.30;;;;;;6244431;22;20012;-84
2021/08/05 08:37:57;;;;;;;11.15;7.47;;;18.80;98.10;;;;;;6193841;22;20074;-84
2021/08/05 08:40:22;;;;;;;10.75;7.28;;;18.90;98.10;;;;;;6218840;22;20387;-83
2021/08/05 08:42:49;;;;;;;8.05;7.07;;;18.90;98.00;;;;;;6218910;22;20019;-83
2021/08/05 08:45:16;;;;;;;7.07;5.47;;;19.00;97.90;;;;;;6220593;22;20341;-85
2021/08/05 08:47:46;;;;;;;10.95;7.55;;;19.00;97.40;;;;;;6244955;22;20317;-84
2021/08/05 08:50:12;;;;;;;6.93;5.50;;;19.00;97.10;;;;;;6244553;22;20012;-85
2021/08/05 08:52:40;;;;;;;7.95;6.10;;;19.10;97.00;;;;;;6245417;22;20092;-83
2021/08/05 08:55:07;;;;;;;8.77;6.53;;;19.10;97.00;;;;;;6272008;22;20037;-83
2021/08/05 08:57:36;;;;;;;6.85;6.13;;;19.10;96.50;;;;;;6273447;22;20524;-84
2021/08/05 09:00:07;;;;;;;6.32;5.72;;;19.20;96.60;;;;;;6245162;22;20069;-84
2021/08/05 09:02:32;;;;;;;6.93;4.97;;;19.20;97.10;;;;;;6245492;22;20073;-84
2021/08/05 09:04:59;;;;;;;6.45;4.93;;;19.30;96.50;;;;;;6245955;22;20471;-84
2021/08/05 09:07:24;;;;;;;6.10;5.40;;;19.30;96.10;;;;;;6195885;22;20470;-84
2021/08/05 09:09:51;;;;;;;5.63;4.90;;;19.30;96.20;;;;;;6220566;22;20012;-84
2021/08/05 09:12:18;;;;;;;5.28;4.53;;;19.40;96.40;;;;;;6220618;22;20031;-84
2021/08/05 09:14:49;;;;;;;9.30;7.35;;;19.40;96.50;;;;;;6272228;22;20012;-83
2021/08/05 09:17:33;;;;;;;9.05;7.63;;;19.40;96.50;;;;;;6246041;22;20468;-84
2021/08/05 09:20:08;;;;;;;9.48;7.03;;;19.50;96.60;;;;;;6273671;22;20012;-84
2021/08/05 09:22:43;;;;;;;6.78;6.03;;;19.50;96.60;;;;;;6256051;22;20080;-84
2021/08/05 09:25:29;;;;;;;10.05;9.02;;;19.50;96.80;;;;;;6245096;22;20018;-84
2021/08/05 09:28:01;;;;;;;7.97;6.38;;;19.60;96.70;;;;;;6272440;22;20100;-84
2021/08/05 09:30:34;;;;;;;6.28;5.68;;;19.70;96.70;;;;;;6255460;22;20284;-85
2021/08/05 09:33:11;;;;;;;6.65;5.57;;;19.70;96.60;;;;;;6252486;22;20089;-84
2021/08/05 09:35:38;;;;;;;8.32;6.10;;;19.70;95.80;;;;;;6245114;22;20095;-85
2021/08/05 09:38:23;;;;;;;10.32;5.53;;;19.80;95.70;;;;;;6246045;22;20015;-84
2021/08/05 09:41:09;;;;;;;6.03;4.65;;;19.80;95.80;;;;;;6248063;22;20081;-84
2021/08/05 09:43:36;;;;;;;5.88;4.50;;;19.90;96.00;;;;;;6279923;22;20027;-84
2021/08/05 09:46:02;;;;;;;6.30;5.45;;;20.00;96.00;;;;;;6246366;22;20011;-84
2021/08/05 09:48:43;;;;;;;6.22;5.60;;;20.00;95.50;;;;;;6222337;22;20045;-83
2021/08/05 09:51:17;;;;;;;5.88;4.95;;;20.20;95.50;;;;;;6257508;22;20470;-83
2021/08/05 09:54:03;;;;;;;5.15;4.65;;;20.30;95.20;;;;;;6251540;22;20012;-84
2021/08/05 09:56:32;;;;;;;5.72;4.20;;;20.40;94.80;;;;;;6222182;22;20455;-83
2021/08/05 09:59:11;;;;;;;5.30;4.18;;;20.50;94.80;;;;;;6246151;22;20398;-84
2021/08/05 10:01:58;;;;;;;4.43;3.70;;;20.50;93.70;;;;;;6283826;22;20016;-84
2021/08/05 10:04:29;;;;;;;6.93;4.47;;;20.50;92.90;;;;;;6246366;22;20011;-83
2021/08/05 10:07:06;;;;;;;5.18;4.30;;;20.50;93.60;;;;;;6284605;22;20509;-84
2021/08/05 10:09:37;;;;;;;4.88;4.38;;;20.50;93.30;;;;;;6246749;22;20007;-83
2021/08/05 10:12:18;;;;;;;5.55;3.88;;;20.50;92.80;;;;;;6196762;22;20015;-84
2021/08/05 10:14:46;;;;;;;4.15;3.75;;;20.50;93.60;;;;;;6246606;22;20543;-84
2021/08/05 10:17:13;;;;;;;4.30;3.47;;;20.60;94.20;;;;;;6222322;22;20102;-84
2021/08/05 10:19:45;;;;;;;4.35;3.70;;;20.70;93.90;;;;;;6246167;22;20022;-83
2021/08/05 10:22:13;;;;;;;5.28;3.15;;;20.80;93.00;;;;;;6246871;22;20061;-84
2021/08/05 10:24:45;;;;;;;3.47;2.72;;;20.90;92.90;;;;;;6246905;22;20015;-83
2021/08/05 10:27:13;;;;;;;5.65;3.88;;;20.90;93.00;;;;;;6246901;22;20529;-83
2021/08/05 10:29:40;;;;;;;4.00;3.15;;;20.90;92.10;;;;;;6245987;22;20015;-84
2021/08/05 10:32:07;;;;;;;4.07;3.25;;;21.00;92.10;;;;;;6221865;22;20391;-85
2021/08/05 10:34:34;;;;;;;3.35;3.03;;;21.00;92.00;;;;;;6221484;22;20015;-84
2021/08/05 10:37:05;;;;;;;4.78;2.78;;;21.00;91.90;;;;;;6274106;22;20432;-84
2021/08/05 10:39:34;;;;;;;4.10;3.67;;;21.00;92.20;;;;;;6245795;22;20015;-84
2021/08/05 10:42:04;;;;;;;4.20;3.13;;;21.00;92.40;;;;;;6196461;22;20042;-84
2021/08/05 10:44:30;;;;;;;5.05;3.60;;;21.00;93.10;;;;;;6221568;22;20356;-84
2021/08/05 10:46:58;;;;;;;4.32;3.10;;;21.00;92.60;;;;;;6246086;22;20069;-84
2021/08/05 10:49:24;;;;;;;4.38;3.53;;;21.10;92.50;;;;;;6219720;22;20470;-85
2021/08/05 10:51:51;;;;;;;5.28;3.22;;;21.10;91.50;;;;;;6245794;22;20019;-84
2021/08/05 10:54:52;;;;;;;3.95;3.08;;;21.10;91.50;;;;;;6272249;22;20012;-84
2021/08/05 10:57:25;;;;;;;3.90;3.42;;;21.20;92.40;;;;;;6245404;22;20022;-84
2021/08/05 11:00:06;;;;;;;4.32;3.15;;;21.10;92.60;;;;;;6194985;22;20007;-84
2021/08/05 11:02:51;;;;;;;4.35;3.00;;;21.10;91.70;;;;;;6254416;22;20012;-84
2021/08/05 11:05:23;;;;;;;4.25;3.22;;;21.10;92.10;;;;;;6249514;22;20448;-84
2021/08/05 11:08:12;;;;;;;3.35;2.75;;;21.10;92.00;;;;;;6272544;22;20082;-84
2021/08/05 11:10:38;;;;;;;3.78;3.20;;;21.10;92.10;;;;;;6220336;22;20528;-84
2021/08/05 11:13:08;;;;;;;3.65;2.97;;;21.10;91.70;;;;;;6245324;22;20077;-84
2021/08/05 11:15:34;;;;;;;3.35;3.10;;;21.10;90.70;;;;;;6245137;22;20413;-83
2021/08/05 11:18:18;;;;;;;5.03;3.95;;;21.10;90.80;;;;;;6272703;22;20012;-84
2021/08/05 11:21:06;;;;;;;5.43;4.15;;;21.20;90.60;;;;;;6271480;22;20022;-83
2021/08/05 11:23:35;;;;;;;4.88;3.60;;;21.30;91.50;;;;;;6244333;22;20034;-83
2021/08/05 11:26:03;;;;;;;6.07;3.38;;;21.40;91.90;;;;;;6244765;22;20407;-84
2021/08/05 11:28:31;;;;;;;5.03;3.75;;;21.50;91.40;;;;;;6244860;22;20476;-85
2021/08/05 11:31:03;;;;;;;3.80;3.47;;;21.60;90.10;;;;;;6219583;22;20141;-84
2021/08/05 11:33:39;;;;;;;5.97;3.35;;;21.60;89.00;;;;;;6244103;22;20012;-83
2021/08/05 11:36:15;;;;;;;3.83;3.15;;;21.60;89.00;;;;;;6244860;22;20008;-83
2021/08/05 11:39:03;;;;;;;7.13;3.35;;;21.80;89.70;;;;;;6244631;22;20514;-84
2021/08/05 11:41:44;;;;;;;5.10;3.35;;;21.80;88.50;;;;;;6254826;22;20016;-83
2021/08/05 11:44:41;;;;;;;3.50;3.20;;;21.90;88.10;;;;;;6244864;22;20349;-83
2021/08/05 11:47:11;;;;;;;6.07;3.53;;;21.80;88.80;;;;;;6226424;22;20472;-83
2021/08/05 11:49:40;;;;;;;3.95;3.42;;;21.80;88.40;;;;;;6244633;22;20058;-83
2021/08/05 11:52:20;;;;;;;2.90;2.70;;;21.70;87.80;;;;;;6244245;22;20034;-83
2021/08/05 11:55:06;;;;;;;4.15;3.00;;;21.70;89.10;;;;;;6255173;22;20016;-82
2021/08/05 11:57:42;;;;;;;5.30;3.15;;;21.60;90.00;;;;;;6244303;22;20016;-84
2021/08/05 12:00:18;;;;;;;4.07;3.13;;;21.60;90.10;;;;;;6254614;22;20011;-83
2021/08/05 12:02:46;;;;;;;6.35;3.70;;;21.60;90.30;;;;;;6243674;22;20018;-83
2021/08/05 12:05:13;;;;;;;7.25;3.17;;;21.60;90.90;;;;;;6244544;22;20086;-83
2021/08/05 12:07:47;;;;;;;4.53;3.88;;;21.70;90.60;;;;;;6244039;22;20019;-83
2021/08/05 12:10:19;;;;;;;5.95;4.20;;;21.80;90.90;;;;;;6254570;22;20007;-83
2021/08/05 12:12:54;;;;;;;6.13;4.43;;;21.90;90.80;;;;;;6227223;22;20023;-83
2021/08/05 12:15:31;;;;;;;5.70;4.40;;;21.90;89.80;;;;;;6279869;22;20016;-83
2021/08/05 12:18:06;;;;;;;7.75;4.88;;;21.90;90.50;;;;;;6244330;22;20456;-83
2021/08/05 12:20:33;;;;;;;4.18;3.78;;;21.80;90.70;;;;;;6219308;22;20012;-83
2021/08/05 12:23:14;;;;;;;4.53;3.53;;;21.80;91.00;;;;;;6242966;22;20008;-83
2021/08/05 12:25:49;;;;;;;4.32;3.60;;;21.80;91.20;;;;;;6254471;22;20028;-84
2021/08/05 12:28:20;;;;;;;3.60;3.30;;;21.70;91.50;;;;;;6244153;22;20011;-82
2021/08/05 12:30:48;;;;;;;4.53;3.40;;;21.70;91.30;;;;;;6244073;22;20065;-83
2021/08/05 12:33:23;;;;;;;4.07;3.40;;;21.70;91.30;;;;;;6271180;22;20012;-83
2021/08/05 12:36:12;;;;;;;4.40;4.00;;;21.70;91.10;;;;;;6244255;22;20008;-82
2021/08/05 12:38:48;;;;;;;5.20;3.80;;;21.70;90.70;;;;;;6218377;22;20016;-83
2021/08/05 12:41:16;;;;;;;5.40;3.65;;;21.70;90.70;;;;;;6271256;22;20086;-83
2021/08/05 12:43:44;;;;;;;4.35;3.47;;;21.70;91.00;;;;;;6270650;22;20008;-83
2021/08/05 12:46:10;;;;;;;3.53;3.22;;;21.70;90.90;;;;;;6244462;22;20522;-83
2021/08/05 12:48:38;;;;;;;4.68;3.60;;;21.70;90.90;;;;;;6244327;22;20039;-82